sensor_id;sensor_type;location;lat;lon;timestamp;P1;durP1;ratioP1;P2;durP2;ratioP2
23506;SDS011;11930;53.076;18.250;2023-06-26T00:00:58;7.00;;;4.43;;
23506;SDS011;11930;53.076;18.250;2023-06-26T00:03:44;6.82;;;3.80;;
23506;SDS011;11930;53.076;18.250;2023-06-26T00:06:10;8.07;;;4.10;;
23506;SDS011;11930;53.076;18.250;2023-06-26T00:08:36;6.30;;;4.00;;
23506;SDS011;11930;53.076;18.250;2023-06-26T00:11:02;5.55;;;3.83;;
23506;SDS011;11930;53.076;18.250;2023-06-26T00:13:28;7.35;;;4.75;;
23506;SDS011;11930;53.076;18.250;2023-06-26T00:15:54;8.07;;;4.30;;
23506;SDS011;11930;53.076;18.250;2023-06-26T00:18:20;7.38;;;3.80;;
23506;SDS011;11930;53.076;18.250;2023-06-26T00:20:47;7.45;;;4.72;;
23506;SDS011;11930;53.076;18.250;2023-06-26T00:23:13;6.72;;;4.32;;
23506;SDS011;11930;53.076;18.250;2023-06-26T00:25:42;8.05;;;4.65;;
23506;SDS011;11930;53.076;18.250;2023-06-26T00:28:08;9.20;;;5.40;;
23506;SDS011;11930;53.076;18.250;2023-06-26T00:30:37;8.55;;;4.95;;
23506;SDS011;11930;53.076;18.250;2023-06-26T00:33:03;6.38;;;4.55;;
23506;SDS011;11930;53.076;18.250;2023-06-26T00:35:31;8.35;;;5.28;;
23506;SDS011;11930;53.076;18.250;2023-06-26T00:37:57;9.05;;;4.63;;
23506;SDS011;11930;53.076;18.250;2023-06-26T00:40:23;8.02;;;5.03;;
23506;SDS011;11930;53.076;18.250;2023-06-26T00:42:49;9.90;;;5.38;;
23506;SDS011;11930;53.076;18.250;2023-06-26T00:45:16;9.57;;;5.13;;
23506;SDS011;11930;53.076;18.250;2023-06-26T00:47:42;9.73;;;5.18;;
23506;SDS011;11930;53.076;18.250;2023-06-26T00:50:08;8.00;;;5.05;;
23506;SDS011;11930;53.076;18.250;2023-06-26T00:52:35;7.60;;;4.80;;
23506;SDS011;11930;53.076;18.250;2023-06-26T00:55:02;11.32;;;4.80;;
23506;SDS011;11930;53.076;18.250;2023-06-26T00:57:29;7.17;;;4.93;;
23506;SDS011;11930;53.076;18.250;2023-06-26T00:59:56;8.20;;;5.20;;
23506;SDS011;11930;53.076;18.250;2023-06-26T01:02:22;7.15;;;4.70;;
23506;SDS011;11930;53.076;18.250;2023-06-26T01:04:49;6.97;;;4.75;;
23506;SDS011;11930;53.076;18.250;2023-06-26T01:07:17;8.27;;;5.47;;
23506;SDS011;11930;53.076;18.250;2023-06-26T01:09:46;8.02;;;5.15;;
23506;SDS011;11930;53.076;18.250;2023-06-26T01:12:13;7.20;;;4.80;;
23506;SDS011;11930;53.076;18.250;2023-06-26T01:14:40;8.67;;;5.07;;
23506;SDS011;11930;53.076;18.250;2023-06-26T01:17:06;6.67;;;4.67;;
23506;SDS011;11930;53.076;18.250;2023-06-26T01:19:37;7.73;;;5.20;;
23506;SDS011;11930;53.076;18.250;2023-06-26T01:24:51;7.17;;;5.07;;
23506;SDS011;11930;53.076;18.250;2023-06-26T01:27:43;8.80;;;5.67;;
23506;SDS011;11930;53.076;18.250;2023-06-26T01:30:14;13.27;;;5.50;;
23506;SDS011;11930;53.076;18.250;2023-06-26T01:32:43;7.13;;;4.70;;
23506;SDS011;11930;53.076;18.250;2023-06-26T01:35:11;11.57;;;5.67;;
23506;SDS011;11930;53.076;18.250;2023-06-26T01:37:37;8.53;;;5.20;;
23506;SDS011;11930;53.076;18.250;2023-06-26T01:40:04;6.80;;;4.67;;
23506;SDS011;11930;53.076;18.250;2023-06-26T01:42:33;7.93;;;5.00;;
23506;SDS011;11930;53.076;18.250;2023-06-26T01:45:17;7.37;;;5.40;;
23506;SDS011;11930;53.076;18.250;2023-06-26T01:47:50;8.63;;;5.20;;
23506;SDS011;11930;53.076;18.250;2023-06-26T01:50:21;8.23;;;5.47;;
23506;SDS011;11930;53.076;18.250;2023-06-26T01:52:53;7.07;;;4.80;;
23506;SDS011;11930;53.076;18.250;2023-06-26T01:55:59;8.60;;;5.00;;
23506;SDS011;11930;53.076;18.250;2023-06-26T01:58:26;7.93;;;5.10;;
23506;SDS011;11930;53.076;18.250;2023-06-26T02:00:53;14.37;;;6.10;;
23506;SDS011;11930;53.076;18.250;2023-06-26T02:03:19;20.70;;;6.83;;
23506;SDS011;11930;53.076;18.250;2023-06-26T02:05:45;21.53;;;6.37;;
23506;SDS011;11930;53.076;18.250;2023-06-26T02:08:13;13.65;;;5.43;;
23506;SDS011;11930;53.076;18.250;2023-06-26T02:10:47;11.70;;;5.47;;
23506;SDS011;11930;53.076;18.250;2023-06-26T02:13:15;10.30;;;5.20;;
23506;SDS011;11930;53.076;18.250;2023-06-26T02:15:42;11.10;;;5.63;;
23506;SDS011;11930;53.076;18.250;2023-06-26T02:18:08;9.70;;;5.50;;
23506;SDS011;11930;53.076;18.250;2023-06-26T02:20:34;9.80;;;6.13;;
23506;SDS011;11930;53.076;18.250;2023-06-26T02:23:00;9.67;;;5.33;;
23506;SDS011;11930;53.076;18.250;2023-06-26T02:25:27;9.40;;;5.33;;
23506;SDS011;11930;53.076;18.250;2023-06-26T02:27:53;8.30;;;5.13;;
23506;SDS011;11930;53.076;18.250;2023-06-26T02:30:20;10.80;;;5.27;;
23506;SDS011;11930;53.076;18.250;2023-06-26T02:32:46;9.53;;;5.50;;
23506;SDS011;11930;53.076;18.250;2023-06-26T02:35:12;7.53;;;4.83;;
23506;SDS011;11930;53.076;18.250;2023-06-26T02:37:41;9.00;;;5.50;;
23506;SDS011;11930;53.076;18.250;2023-06-26T02:40:08;8.13;;;5.27;;
23506;SDS011;11930;53.076;18.250;2023-06-26T02:42:37;7.97;;;5.40;;
23506;SDS011;11930;53.076;18.250;2023-06-26T02:45:03;8.50;;;5.17;;
23506;SDS011;11930;53.076;18.250;2023-06-26T02:47:31;9.30;;;4.83;;
23506;SDS011;11930;53.076;18.250;2023-06-26T02:49:57;8.40;;;4.53;;
23506;SDS011;11930;53.076;18.250;2023-06-26T02:52:23;8.30;;;4.97;;
23506;SDS011;11930;53.076;18.250;2023-06-26T02:54:50;9.13;;;5.60;;
23506;SDS011;11930;53.076;18.250;2023-06-26T02:57:16;10.40;;;5.27;;
23506;SDS011;11930;53.076;18.250;2023-06-26T02:59:43;9.30;;;5.40;;
23506;SDS011;11930;53.076;18.250;2023-06-26T03:02:10;10.47;;;5.27;;
23506;SDS011;11930;53.076;18.250;2023-06-26T03:04:41;7.23;;;5.20;;
23506;SDS011;11930;53.076;18.250;2023-06-26T03:07:10;8.07;;;5.10;;
23506;SDS011;11930;53.076;18.250;2023-06-26T03:09:38;9.37;;;5.40;;
23506;SDS011;11930;53.076;18.250;2023-06-26T03:12:04;9.97;;;5.33;;
23506;SDS011;11930;53.076;18.250;2023-06-26T03:14:33;8.70;;;5.10;;
23506;SDS011;11930;53.076;18.250;2023-06-26T03:16:59;12.90;;;5.60;;
23506;SDS011;11930;53.076;18.250;2023-06-26T03:19:29;12.90;;;5.40;;
23506;SDS011;11930;53.076;18.250;2023-06-26T03:22:15;10.30;;;5.97;;
23506;SDS011;11930;53.076;18.250;2023-06-26T03:24:43;9.97;;;5.70;;
23506;SDS011;11930;53.076;18.250;2023-06-26T03:27:10;11.05;;;5.80;;
23506;SDS011;11930;53.076;18.250;2023-06-26T03:29:36;14.25;;;5.32;;
23506;SDS011;11930;53.076;18.250;2023-06-26T03:32:02;9.57;;;5.93;;
23506;SDS011;11930;53.076;18.250;2023-06-26T03:34:29;12.85;;;6.07;;
23506;SDS011;11930;53.076;18.250;2023-06-26T03:36:55;8.80;;;5.43;;
23506;SDS011;11930;53.076;18.250;2023-06-26T03:39:21;10.32;;;5.82;;
23506;SDS011;11930;53.076;18.250;2023-06-26T03:41:47;16.70;;;5.13;;
23506;SDS011;11930;53.076;18.250;2023-06-26T03:44:14;10.52;;;4.85;;
23506;SDS011;11930;53.076;18.250;2023-06-26T03:46:44;7.53;;;4.90;;
23506;SDS011;11930;53.076;18.250;2023-06-26T03:49:11;10.30;;;4.95;;
23506;SDS011;11930;53.076;18.250;2023-06-26T03:51:37;9.20;;;4.13;;
23506;SDS011;11930;53.076;18.250;2023-06-26T03:54:03;10.27;;;5.10;;
23506;SDS011;11930;53.076;18.250;2023-06-26T03:56:29;11.63;;;5.53;;
23506;SDS011;11930;53.076;18.250;2023-06-26T03:58:55;9.07;;;5.00;;
23506;SDS011;11930;53.076;18.250;2023-06-26T04:01:21;8.60;;;4.93;;
23506;SDS011;11930;53.076;18.250;2023-06-26T04:03:49;7.95;;;5.15;;
23506;SDS011;11930;53.076;18.250;2023-06-26T04:06:15;9.68;;;5.30;;
23506;SDS011;11930;53.076;18.250;2023-06-26T04:08:41;7.97;;;5.40;;
23506;SDS011;11930;53.076;18.250;2023-06-26T04:11:07;6.85;;;5.65;;
23506;SDS011;11930;53.076;18.250;2023-06-26T04:13:33;8.05;;;6.32;;
23506;SDS011;11930;53.076;18.250;2023-06-26T04:15:59;8.95;;;6.40;;
23506;SDS011;11930;53.076;18.250;2023-06-26T04:18:25;9.40;;;6.70;;
23506;SDS011;11930;53.076;18.250;2023-06-26T04:21:10;9.68;;;6.28;;
23506;SDS011;11930;53.076;18.250;2023-06-26T04:23:38;8.57;;;6.22;;
23506;SDS011;11930;53.076;18.250;2023-06-26T04:26:05;8.93;;;6.53;;
23506;SDS011;11930;53.076;18.250;2023-06-26T04:28:32;8.85;;;6.50;;
23506;SDS011;11930;53.076;18.250;2023-06-26T04:30:59;11.85;;;6.65;;
23506;SDS011;11930;53.076;18.250;2023-06-26T04:33:27;11.57;;;7.18;;
23506;SDS011;11930;53.076;18.250;2023-06-26T04:35:53;9.98;;;6.95;;
23506;SDS011;11930;53.076;18.250;2023-06-26T04:38:19;11.43;;;7.18;;
23506;SDS011;11930;53.076;18.250;2023-06-26T04:40:49;12.55;;;7.80;;
23506;SDS011;11930;53.076;18.250;2023-06-26T04:43:15;11.80;;;7.63;;
23506;SDS011;11930;53.076;18.250;2023-06-26T04:45:41;16.27;;;8.43;;
23506;SDS011;11930;53.076;18.250;2023-06-26T04:48:08;10.63;;;7.30;;
23506;SDS011;11930;53.076;18.250;2023-06-26T04:50:34;16.25;;;7.18;;
23506;SDS011;11930;53.076;18.250;2023-06-26T04:53:01;17.08;;;8.70;;
23506;SDS011;11930;53.076;18.250;2023-06-26T04:55:27;12.30;;;7.65;;
23506;SDS011;11930;53.076;18.250;2023-06-26T04:57:54;13.02;;;7.30;;
23506;SDS011;11930;53.076;18.250;2023-06-26T05:00:20;15.15;;;7.90;;
23506;SDS011;11930;53.076;18.250;2023-06-26T05:02:46;11.85;;;7.43;;
23506;SDS011;11930;53.076;18.250;2023-06-26T05:05:12;12.23;;;7.68;;
23506;SDS011;11930;53.076;18.250;2023-06-26T05:07:41;9.48;;;7.28;;
23506;SDS011;11930;53.076;18.250;2023-06-26T05:10:07;11.50;;;7.43;;
23506;SDS011;11930;53.076;18.250;2023-06-26T05:12:34;9.48;;;7.07;;
23506;SDS011;11930;53.076;18.250;2023-06-26T05:15:00;8.30;;;6.75;;
23506;SDS011;11930;53.076;18.250;2023-06-26T05:17:26;9.30;;;6.38;;
23506;SDS011;11930;53.076;18.250;2023-06-26T05:19:52;11.63;;;7.22;;
23506;SDS011;11930;53.076;18.250;2023-06-26T05:22:18;7.97;;;6.32;;
23506;SDS011;11930;53.076;18.250;2023-06-26T05:24:46;11.20;;;6.93;;
23506;SDS011;11930;53.076;18.250;2023-06-26T05:27:13;9.93;;;7.10;;
23506;SDS011;11930;53.076;18.250;2023-06-26T05:29:46;8.40;;;6.68;;
23506;SDS011;11930;53.076;18.250;2023-06-26T05:32:16;9.07;;;6.40;;
23506;SDS011;11930;53.076;18.250;2023-06-26T05:34:43;9.48;;;6.55;;
23506;SDS011;11930;53.076;18.250;2023-06-26T05:37:20;7.85;;;6.22;;
23506;SDS011;11930;53.076;18.250;2023-06-26T05:39:46;8.18;;;6.47;;
23506;SDS011;11930;53.076;18.250;2023-06-26T05:42:13;9.40;;;6.85;;
23506;SDS011;11930;53.076;18.250;2023-06-26T05:44:40;10.55;;;6.53;;
23506;SDS011;11930;53.076;18.250;2023-06-26T05:47:06;11.43;;;6.30;;
23506;SDS011;11930;53.076;18.250;2023-06-26T05:49:32;8.57;;;5.97;;
23506;SDS011;11930;53.076;18.250;2023-06-26T05:51:59;7.00;;;5.82;;
23506;SDS011;11930;53.076;18.250;2023-06-26T05:54:25;7.43;;;6.10;;
23506;SDS011;11930;53.076;18.250;2023-06-26T05:56:56;7.32;;;6.05;;
23506;SDS011;11930;53.076;18.250;2023-06-26T05:59:24;8.25;;;6.25;;
23506;SDS011;11930;53.076;18.250;2023-06-26T06:01:52;10.65;;;6.68;;
23506;SDS011;11930;53.076;18.250;2023-06-26T06:04:18;8.65;;;5.93;;
23506;SDS011;11930;53.076;18.250;2023-06-26T06:06:45;9.50;;;5.60;;
23506;SDS011;11930;53.076;18.250;2023-06-26T06:09:11;9.13;;;5.60;;
23506;SDS011;11930;53.076;18.250;2023-06-26T06:11:37;8.20;;;5.70;;
23506;SDS011;11930;53.076;18.250;2023-06-26T06:14:03;8.15;;;6.22;;
23506;SDS011;11930;53.076;18.250;2023-06-26T06:16:30;9.20;;;6.40;;
23506;SDS011;11930;53.076;18.250;2023-06-26T06:18:55;11.75;;;7.22;;
23506;SDS011;11930;53.076;18.250;2023-06-26T06:21:22;9.57;;;6.43;;
23506;SDS011;11930;53.076;18.250;2023-06-26T06:23:47;10.13;;;6.15;;
23506;SDS011;11930;53.076;18.250;2023-06-26T06:26:14;10.38;;;7.43;;
23506;SDS011;11930;53.076;18.250;2023-06-26T06:28:40;9.27;;;6.93;;
23506;SDS011;11930;53.076;18.250;2023-06-26T06:31:06;9.68;;;6.80;;
23506;SDS011;11930;53.076;18.250;2023-06-26T06:33:32;11.63;;;6.35;;
23506;SDS011;11930;53.076;18.250;2023-06-26T06:35:58;9.75;;;6.30;;
23506;SDS011;11930;53.076;18.250;2023-06-26T06:38:24;10.82;;;6.90;;
23506;SDS011;11930;53.076;18.250;2023-06-26T06:40:50;10.38;;;6.25;;
23506;SDS011;11930;53.076;18.250;2023-06-26T06:43:16;7.80;;;5.85;;
23506;SDS011;11930;53.076;18.250;2023-06-26T06:45:44;9.38;;;6.72;;
23506;SDS011;11930;53.076;18.250;2023-06-26T06:48:10;10.15;;;6.05;;
23506;SDS011;11930;53.076;18.250;2023-06-26T06:50:36;11.57;;;6.25;;
23506;SDS011;11930;53.076;18.250;2023-06-26T06:53:02;10.48;;;6.18;;
23506;SDS011;11930;53.076;18.250;2023-06-26T06:55:29;10.30;;;6.45;;
23506;SDS011;11930;53.076;18.250;2023-06-26T06:57:55;9.55;;;6.18;;
23506;SDS011;11930;53.076;18.250;2023-06-26T07:00:21;9.48;;;6.20;;
23506;SDS011;11930;53.076;18.250;2023-06-26T07:02:47;7.88;;;5.75;;
23506;SDS011;11930;53.076;18.250;2023-06-26T07:05:13;11.55;;;5.85;;
23506;SDS011;11930;53.076;18.250;2023-06-26T07:07:40;12.10;;;5.63;;
23506;SDS011;11930;53.076;18.250;2023-06-26T07:10:07;8.93;;;5.10;;
23506;SDS011;11930;53.076;18.250;2023-06-26T07:12:35;9.02;;;5.47;;
23506;SDS011;11930;53.076;18.250;2023-06-26T07:15:03;11.50;;;5.32;;
23506;SDS011;11930;53.076;18.250;2023-06-26T07:17:33;8.15;;;5.13;;
23506;SDS011;11930;53.076;18.250;2023-06-26T07:20:00;6.18;;;4.78;;
23506;SDS011;11930;53.076;18.250;2023-06-26T07:22:30;9.13;;;5.30;;
23506;SDS011;11930;53.076;18.250;2023-06-26T07:24:56;8.00;;;4.88;;
23506;SDS011;11930;53.076;18.250;2023-06-26T07:27:22;7.20;;;5.15;;
23506;SDS011;11930;53.076;18.250;2023-06-26T07:29:49;7.43;;;5.43;;
23506;SDS011;11930;53.076;18.250;2023-06-26T07:32:15;9.50;;;5.50;;
23506;SDS011;11930;53.076;18.250;2023-06-26T07:34:42;6.40;;;4.55;;
23506;SDS011;11930;53.076;18.250;2023-06-26T07:37:08;6.38;;;4.82;;
23506;SDS011;11930;53.076;18.250;2023-06-26T07:39:34;6.82;;;4.70;;
23506;SDS011;11930;53.076;18.250;2023-06-26T07:42:00;6.88;;;4.72;;
23506;SDS011;11930;53.076;18.250;2023-06-26T07:44:26;7.30;;;4.32;;
23506;SDS011;11930;53.076;18.250;2023-06-26T07:46:52;8.25;;;4.50;;
23506;SDS011;11930;53.076;18.250;2023-06-26T07:49:19;6.38;;;4.38;;
23506;SDS011;11930;53.076;18.250;2023-06-26T07:51:44;8.88;;;4.97;;
23506;SDS011;11930;53.076;18.250;2023-06-26T07:54:11;8.88;;;4.90;;
23506;SDS011;11930;53.076;18.250;2023-06-26T07:59:23;7.00;;;4.90;;
23506;SDS011;11930;53.076;18.250;2023-06-26T08:01:50;9.23;;;5.63;;
23506;SDS011;11930;53.076;18.250;2023-06-26T08:04:18;8.45;;;5.82;;
23506;SDS011;11930;53.076;18.250;2023-06-26T08:06:47;7.15;;;5.50;;
23506;SDS011;11930;53.076;18.250;2023-06-26T08:09:17;7.03;;;5.20;;
23506;SDS011;11930;53.076;18.250;2023-06-26T08:11:45;10.30;;;5.50;;
23506;SDS011;11930;53.076;18.250;2023-06-26T08:14:12;7.70;;;5.00;;
23506;SDS011;11930;53.076;18.250;2023-06-26T08:16:38;5.93;;;5.18;;
23506;SDS011;11930;53.076;18.250;2023-06-26T08:19:05;7.45;;;5.30;;
23506;SDS011;11930;53.076;18.250;2023-06-26T08:21:31;8.50;;;5.35;;
23506;SDS011;11930;53.076;18.250;2023-06-26T08:23:57;6.63;;;4.90;;
23506;SDS011;11930;53.076;18.250;2023-06-26T08:26:23;6.85;;;4.95;;
23506;SDS011;11930;53.076;18.250;2023-06-26T08:28:50;7.22;;;4.65;;
23506;SDS011;11930;53.076;18.250;2023-06-26T08:31:16;8.23;;;5.35;;
23506;SDS011;11930;53.076;18.250;2023-06-26T08:33:43;5.82;;;4.65;;
23506;SDS011;11930;53.076;18.250;2023-06-26T08:36:09;7.07;;;5.50;;
23506;SDS011;11930;53.076;18.250;2023-06-26T08:38:35;7.93;;;4.32;;
23506;SDS011;11930;53.076;18.250;2023-06-26T08:41:01;8.45;;;4.90;;
23506;SDS011;11930;53.076;18.250;2023-06-26T08:43:28;7.32;;;5.03;;
23506;SDS011;11930;53.076;18.250;2023-06-26T08:45:54;7.85;;;4.43;;
23506;SDS011;11930;53.076;18.250;2023-06-26T08:48:20;6.40;;;4.45;;
23506;SDS011;11930;53.076;18.250;2023-06-26T08:50:48;6.57;;;4.75;;
23506;SDS011;11930;53.076;18.250;2023-06-26T08:53:23;7.93;;;4.60;;
23506;SDS011;11930;53.076;18.250;2023-06-26T08:56:03;8.65;;;4.90;;
23506;SDS011;11930;53.076;18.250;2023-06-26T08:58:29;5.75;;;4.38;;
23506;SDS011;11930;53.076;18.250;2023-06-26T09:00:56;6.10;;;4.30;;
23506;SDS011;11930;53.076;18.250;2023-06-26T09:03:23;7.10;;;3.88;;
23506;SDS011;11930;53.076;18.250;2023-06-26T09:05:51;5.30;;;4.32;;
23506;SDS011;11930;53.076;18.250;2023-06-26T09:08:17;7.38;;;4.05;;
23506;SDS011;11930;53.076;18.250;2023-06-26T09:10:44;5.55;;;4.07;;
23506;SDS011;11930;53.076;18.250;2023-06-26T09:13:10;6.00;;;3.90;;
23506;SDS011;11930;53.076;18.250;2023-06-26T09:15:36;6.30;;;4.30;;
23506;SDS011;11930;53.076;18.250;2023-06-26T09:18:04;6.05;;;4.70;;
23506;SDS011;11930;53.076;18.250;2023-06-26T09:20:31;6.15;;;4.50;;
23506;SDS011;11930;53.076;18.250;2023-06-26T09:23:00;8.00;;;4.78;;
23506;SDS011;11930;53.076;18.250;2023-06-26T09:25:27;6.57;;;4.20;;
23506;SDS011;11930;53.076;18.250;2023-06-26T09:27:55;5.13;;;3.90;;
23506;SDS011;11930;53.076;18.250;2023-06-26T09:30:21;5.97;;;3.78;;
23506;SDS011;11930;53.076;18.250;2023-06-26T09:32:48;5.75;;;3.65;;
23506;SDS011;11930;53.076;18.250;2023-06-26T09:35:19;4.75;;;3.40;;
23506;SDS011;11930;53.076;18.250;2023-06-26T09:37:45;5.55;;;3.25;;
23506;SDS011;11930;53.076;18.250;2023-06-26T09:40:13;5.20;;;3.70;;
23506;SDS011;11930;53.076;18.250;2023-06-26T09:42:39;5.72;;;3.67;;
23506;SDS011;11930;53.076;18.250;2023-06-26T09:45:06;6.43;;;3.85;;
23506;SDS011;11930;53.076;18.250;2023-06-26T09:47:33;5.00;;;3.38;;
23506;SDS011;11930;53.076;18.250;2023-06-26T09:50:02;10.43;;;4.10;;
23506;SDS011;11930;53.076;18.250;2023-06-26T09:52:31;6.68;;;3.53;;
23506;SDS011;11930;53.076;18.250;2023-06-26T09:55:07;9.10;;;3.85;;
23506;SDS011;11930;53.076;18.250;2023-06-26T09:57:34;14.95;;;4.55;;
23506;SDS011;11930;53.076;18.250;2023-06-26T10:00:02;5.40;;;3.60;;
23506;SDS011;11930;53.076;18.250;2023-06-26T10:02:38;6.15;;;3.67;;
23506;SDS011;11930;53.076;18.250;2023-06-26T10:05:04;5.68;;;3.70;;
23506;SDS011;11930;53.076;18.250;2023-06-26T10:07:31;5.45;;;3.97;;
23506;SDS011;11930;53.076;18.250;2023-06-26T10:09:57;6.95;;;3.90;;
23506;SDS011;11930;53.076;18.250;2023-06-26T10:12:27;3.50;;;3.00;;
23506;SDS011;11930;53.076;18.250;2023-06-26T10:14:56;4.20;;;3.70;;
23506;SDS011;11930;53.076;18.250;2023-06-26T10:17:24;4.50;;;3.50;;
23506;SDS011;11930;53.076;18.250;2023-06-26T10:19:53;4.88;;;3.55;;
23506;SDS011;11930;53.076;18.250;2023-06-26T10:22:24;5.22;;;3.60;;
23506;SDS011;11930;53.076;18.250;2023-06-26T10:24:55;5.28;;;3.85;;
23506;SDS011;11930;53.076;18.250;2023-06-26T10:27:25;5.80;;;4.15;;
23506;SDS011;11930;53.076;18.250;2023-06-26T10:29:56;5.38;;;3.70;;
23506;SDS011;11930;53.076;18.250;2023-06-26T10:32:26;5.00;;;3.72;;
23506;SDS011;11930;53.076;18.250;2023-06-26T10:34:53;6.13;;;3.75;;
23506;SDS011;11930;53.076;18.250;2023-06-26T10:37:21;4.43;;;3.50;;
23506;SDS011;11930;53.076;18.250;2023-06-26T10:40:10;4.22;;;3.45;;
23506;SDS011;11930;53.076;18.250;2023-06-26T10:42:37;5.68;;;3.72;;
23506;SDS011;11930;53.076;18.250;2023-06-26T10:45:17;5.57;;;3.60;;
23506;SDS011;11930;53.076;18.250;2023-06-26T10:47:46;4.90;;;3.53;;
23506;SDS011;11930;53.076;18.250;2023-06-26T10:50:19;4.85;;;3.70;;
23506;SDS011;11930;53.076;18.250;2023-06-26T10:53:22;6.28;;;3.78;;
23506;SDS011;11930;53.076;18.250;2023-06-26T10:55:54;16.15;;;5.15;;
23506;SDS011;11930;53.076;18.250;2023-06-26T11:01:13;5.00;;;3.72;;
23506;SDS011;11930;53.076;18.250;2023-06-26T11:03:45;6.28;;;3.92;;
23506;SDS011;11930;53.076;18.250;2023-06-26T11:08:47;7.35;;;3.92;;
23506;SDS011;11930;53.076;18.250;2023-06-26T11:11:15;4.85;;;3.95;;
23506;SDS011;11930;53.076;18.250;2023-06-26T11:13:42;13.18;;;4.22;;
23506;SDS011;11930;53.076;18.250;2023-06-26T11:16:11;5.22;;;3.90;;
23506;SDS011;11930;53.076;18.250;2023-06-26T11:18:38;4.93;;;3.83;;
23506;SDS011;11930;53.076;18.250;2023-06-26T11:21:07;7.68;;;3.88;;
23506;SDS011;11930;53.076;18.250;2023-06-26T11:23:35;5.78;;;4.30;;
23506;SDS011;11930;53.076;18.250;2023-06-26T11:29:07;4.57;;;3.58;;
23506;SDS011;11930;53.076;18.250;2023-06-26T11:31:34;5.50;;;4.15;;
23506;SDS011;11930;53.076;18.250;2023-06-26T11:34:06;6.63;;;4.22;;
23506;SDS011;11930;53.076;18.250;2023-06-26T11:36:37;8.38;;;4.00;;
23506;SDS011;11930;53.076;18.250;2023-06-26T11:39:05;5.32;;;3.83;;
23506;SDS011;11930;53.076;18.250;2023-06-26T11:41:32;6.72;;;4.35;;
23506;SDS011;11930;53.076;18.250;2023-06-26T11:46:29;5.28;;;3.97;;
23506;SDS011;11930;53.076;18.250;2023-06-26T11:48:56;5.28;;;3.78;;
23506;SDS011;11930;53.076;18.250;2023-06-26T11:51:22;8.38;;;4.65;;
23506;SDS011;11930;53.076;18.250;2023-06-26T11:53:49;5.57;;;4.35;;
23506;SDS011;11930;53.076;18.250;2023-06-26T11:56:16;7.93;;;4.75;;
23506;SDS011;11930;53.076;18.250;2023-06-26T11:59:02;8.55;;;4.25;;
23506;SDS011;11930;53.076;18.250;2023-06-26T12:01:35;12.75;;;4.82;;
23506;SDS011;11930;53.076;18.250;2023-06-26T12:04:03;6.85;;;4.10;;
23506;SDS011;11930;53.076;18.250;2023-06-26T12:06:30;7.53;;;4.20;;
23506;SDS011;11930;53.076;18.250;2023-06-26T12:08:59;5.40;;;3.88;;
23506;SDS011;11930;53.076;18.250;2023-06-26T12:11:27;7.10;;;3.95;;
23506;SDS011;11930;53.076;18.250;2023-06-26T12:13:55;5.10;;;4.18;;
23506;SDS011;11930;53.076;18.250;2023-06-26T12:16:22;5.53;;;4.05;;
23506;SDS011;11930;53.076;18.250;2023-06-26T12:18:48;5.32;;;4.30;;
23506;SDS011;11930;53.076;18.250;2023-06-26T12:24:00;6.57;;;4.40;;
23506;SDS011;11930;53.076;18.250;2023-06-26T12:26:26;7.30;;;4.45;;
23506;SDS011;11930;53.076;18.250;2023-06-26T12:29:07;6.30;;;4.50;;
23506;SDS011;11930;53.076;18.250;2023-06-26T12:31:34;7.55;;;4.40;;
23506;SDS011;11930;53.076;18.250;2023-06-26T12:34:01;5.97;;;4.45;;
23506;SDS011;11930;53.076;18.250;2023-06-26T12:36:47;5.47;;;4.45;;
23506;SDS011;11930;53.076;18.250;2023-06-26T12:39:18;9.93;;;4.38;;
23506;SDS011;11930;53.076;18.250;2023-06-26T12:41:52;7.45;;;4.75;;
23506;SDS011;11930;53.076;18.250;2023-06-26T12:46:48;6.45;;;4.38;;
23506;SDS011;11930;53.076;18.250;2023-06-26T12:49:18;5.47;;;4.13;;
23506;SDS011;11930;53.076;18.250;2023-06-26T12:51:44;7.00;;;4.35;;
23506;SDS011;11930;53.076;18.250;2023-06-26T12:54:11;6.05;;;4.75;;
23506;SDS011;11930;53.076;18.250;2023-06-26T12:56:38;6.82;;;4.47;;
23506;SDS011;11930;53.076;18.250;2023-06-26T12:59:04;7.53;;;4.65;;
23506;SDS011;11930;53.076;18.250;2023-06-26T13:01:30;6.85;;;4.20;;
23506;SDS011;11930;53.076;18.250;2023-06-26T13:03:56;15.43;;;5.28;;
23506;SDS011;11930;53.076;18.250;2023-06-26T13:06:22;7.38;;;4.53;;
23506;SDS011;11930;53.076;18.250;2023-06-26T13:08:48;7.32;;;4.90;;
23506;SDS011;11930;53.076;18.250;2023-06-26T13:11:15;7.15;;;4.70;;
23506;SDS011;11930;53.076;18.250;2023-06-26T13:13:42;7.72;;;4.55;;
23506;SDS011;11930;53.076;18.250;2023-06-26T13:16:08;7.30;;;4.82;;
23506;SDS011;11930;53.076;18.250;2023-06-26T13:18:34;5.90;;;4.43;;
23506;SDS011;11930;53.076;18.250;2023-06-26T13:21:00;6.97;;;4.95;;
23506;SDS011;11930;53.076;18.250;2023-06-26T13:23:27;9.00;;;4.82;;
23506;SDS011;11930;53.076;18.250;2023-06-26T13:25:53;6.85;;;4.78;;
23506;SDS011;11930;53.076;18.250;2023-06-26T13:28:19;7.30;;;4.50;;
23506;SDS011;11930;53.076;18.250;2023-06-26T13:30:46;8.88;;;5.40;;
23506;SDS011;11930;53.076;18.250;2023-06-26T13:33:12;6.90;;;4.50;;
23506;SDS011;11930;53.076;18.250;2023-06-26T13:35:38;8.65;;;4.93;;
23506;SDS011;11930;53.076;18.250;2023-06-26T13:38:04;5.63;;;4.60;;
23506;SDS011;11930;53.076;18.250;2023-06-26T13:40:31;16.88;;;5.47;;
23506;SDS011;11930;53.076;18.250;2023-06-26T13:42:57;5.68;;;4.75;;
23506;SDS011;11930;53.076;18.250;2023-06-26T13:45:24;7.68;;;4.95;;
23506;SDS011;11930;53.076;18.250;2023-06-26T13:47:50;7.03;;;4.78;;
23506;SDS011;11930;53.076;18.250;2023-06-26T13:50:17;5.97;;;4.65;;
23506;SDS011;11930;53.076;18.250;2023-06-26T13:52:43;6.82;;;4.40;;
23506;SDS011;11930;53.076;18.250;2023-06-26T13:55:09;8.85;;;4.80;;
23506;SDS011;11930;53.076;18.250;2023-06-26T13:57:36;6.97;;;4.35;;
23506;SDS011;11930;53.076;18.250;2023-06-26T14:00:08;4.90;;;3.88;;
23506;SDS011;11930;53.076;18.250;2023-06-26T14:02:38;7.28;;;4.28;;
23506;SDS011;11930;53.076;18.250;2023-06-26T14:05:04;9.27;;;4.57;;
23506;SDS011;11930;53.076;18.250;2023-06-26T14:07:30;5.72;;;4.60;;
23506;SDS011;11930;53.076;18.250;2023-06-26T14:09:57;6.60;;;5.10;;
23506;SDS011;11930;53.076;18.250;2023-06-26T14:12:23;7.78;;;4.70;;
23506;SDS011;11930;53.076;18.250;2023-06-26T14:14:50;7.30;;;4.53;;
23506;SDS011;11930;53.076;18.250;2023-06-26T14:17:16;7.15;;;4.43;;
23506;SDS011;11930;53.076;18.250;2023-06-26T14:19:42;5.28;;;4.15;;
23506;SDS011;11930;53.076;18.250;2023-06-26T14:22:08;7.57;;;4.60;;
23506;SDS011;11930;53.076;18.250;2023-06-26T14:24:35;5.63;;;4.47;;
23506;SDS011;11930;53.076;18.250;2023-06-26T14:27:01;7.53;;;4.78;;
23506;SDS011;11930;53.076;18.250;2023-06-26T14:29:28;5.68;;;4.28;;
23506;SDS011;11930;53.076;18.250;2023-06-26T14:31:55;7.97;;;4.47;;
23506;SDS011;11930;53.076;18.250;2023-06-26T14:34:22;7.05;;;3.88;;
23506;SDS011;11930;53.076;18.250;2023-06-26T14:36:48;6.80;;;4.15;;
23506;SDS011;11930;53.076;18.250;2023-06-26T14:39:14;5.82;;;3.90;;
23506;SDS011;11930;53.076;18.250;2023-06-26T14:41:41;13.00;;;4.93;;
23506;SDS011;11930;53.076;18.250;2023-06-26T14:44:08;13.82;;;5.10;;
23506;SDS011;11930;53.076;18.250;2023-06-26T14:46:36;5.40;;;4.15;;
23506;SDS011;11930;53.076;18.250;2023-06-26T14:49:02;19.05;;;5.38;;
23506;SDS011;11930;53.076;18.250;2023-06-26T14:51:28;4.93;;;3.70;;
23506;SDS011;11930;53.076;18.250;2023-06-26T14:53:55;5.95;;;4.60;;
23506;SDS011;11930;53.076;18.250;2023-06-26T14:56:22;6.80;;;4.43;;